Time;durP1;ratioP1;P1;durP2;ratioP2;P2;SDS_P1;SDS_P2;PMS_P1;PMS_P2;Temp;Humidity;BMP_temperature;BMP_pressure;BME280_temperature;BME280_humidity;BME280_pressure;Samples;Min_cycle;Max_cycle;Signal;HPM_P1;HPM_P2
2022/03/09 00:00:12;;;;;;;;;66.00;50.25;;;;;11.23;40.43;101488.34;5032937;28;45448;-73
2022/03/09 00:02:37;;;;;;;;;63.50;49.75;;;;;11.20;40.61;101482.19;5022304;28;45651;-73
2022/03/09 00:05:03;;;;;;;;;60.75;47.25;;;;;11.24;40.87;101483.88;5034602;28;45433;-73
2022/03/09 00:07:28;;;;;;;;;61.00;49.25;;;;;11.13;40.61;101466.28;5023251;28;47049;-73
2022/03/09 00:09:54;;;;;;;;;61.00;49.25;;;;;11.20;41.14;101482.19;5028459;28;45369;-73
2022/03/09 00:12:19;;;;;;;;;59.00;50.00;;;;;11.20;40.67;101485.72;5023850;28;45451;-73
2022/03/09 00:14:45;;;;;;;;;63.75;49.75;;;;;11.16;40.87;101485.84;5021740;28;45501;-73
2022/03/09 00:17:11;;;;;;;;;61.00;49.50;;;;;11.17;40.68;101492.94;5020317;28;45294;-73
2022/03/09 00:19:36;;;;;;;;;64.50;51.75;;;;;11.12;40.65;101480.56;5020610;28;45320;-73
2022/03/09 00:22:02;;;;;;;;;62.00;49.50;;;;;11.14;41.09;101491.22;5032365;28;45498;-73
2022/03/09 00:24:27;;;;;;;;;63.25;49.25;;;;;11.09;41.27;101482.41;5031387;28;45415;-73
2022/03/09 00:26:52;;;;;;;;;59.75;47.00;;;;;11.09;40.74;101487.75;5033986;28;45990;-73
2022/03/09 00:29:18;;;;;;;;;65.75;50.00;;;;;11.06;41.26;101482.47;5020559;28;45323;-73
2022/03/09 00:31:43;;;;;;;;;56.25;45.00;;;;;11.02;41.21;101484.34;5022897;28;45177;-73
2022/03/09 00:34:09;;;;;;;;;65.25;49.25;;;;;11.04;41.14;101497.69;5020580;28;45316;-73
2022/03/09 00:36:35;;;;;;;;;58.75;48.50;;;;;11.03;41.14;101494.13;5030350;28;48405;-73
2022/03/09 00:39:00;;;;;;;;;62.25;48.75;;;;;11.00;41.36;101502.22;5020466;28;45240;-73
2022/03/09 00:41:26;;;;;;;;;57.75;45.75;;;;;11.00;41.42;101499.53;5021375;28;45335;-73
2022/03/09 00:43:51;;;;;;;;;63.25;49.75;;;;;10.96;41.18;101492.53;5023554;28;45347;-73
2022/03/09 00:46:16;;;;;;;;;71.00;52.75;;;;;10.96;41.34;101499.63;5039513;28;45366;-73
2022/03/09 00:48:42;;;;;;;;;65.75;49.25;;;;;10.94;41.12;101495.22;5020294;28;45379;-73
2022/03/09 00:51:07;;;;;;;;;62.50;49.00;;;;;10.97;41.43;101504.94;5028465;28;45501;-73
2022/03/09 00:53:33;;;;;;;;;61.50;48.00;;;;;10.93;41.22;101498.81;5020246;28;45474;-73
2022/03/09 00:55:58;;;;;;;;;64.25;51.25;;;;;10.93;41.67;101519.31;5027702;28;46119;-73
2022/03/09 00:58:23;;;;;;;;;61.50;49.75;;;;;10.91;41.35;101510.44;5020165;28;45298;-73
2022/03/09 01:00:49;;;;;;;;;69.75;50.25;;;;;10.89;41.96;101518.50;5020489;28;45490;-73
2022/03/09 01:03:15;;;;;;;;;70.00;52.75;;;;;10.86;41.75;101521.22;5033084;28;45295;-73
2022/03/09 01:05:41;;;;;;;;;65.25;52.00;;;;;10.86;41.91;101521.22;5019540;28;46164;-73
2022/03/09 01:08:06;;;;;;;;;70.00;52.75;;;;;10.85;41.75;101524.78;5018402;28;45248;-73
2022/03/09 01:10:32;;;;;;;;;60.50;50.00;;;;;10.82;41.91;101511.50;5033931;28;45516;-73
2022/03/09 01:12:57;;;;;;;;;63.75;51.00;;;;;10.76;41.85;101514.31;5032806;28;45331;-73
2022/03/09 01:15:23;;;;;;;;;69.75;53.50;;;;;10.75;41.91;101517.88;5019264;28;46130;-73
2022/03/09 01:17:48;;;;;;;;;64.75;51.00;;;;;10.73;41.96;101517.91;5019608;28;45363;-73
2022/03/09 01:20:14;;;;;;;;;66.75;52.00;;;;;10.73;42.14;101523.25;5033183;28;45186;-73
2022/03/09 01:22:40;;;;;;;;;63.50;51.25;;;;;10.69;42.50;101518.91;5023060;28;45296;-73
2022/03/09 01:25:06;;;;;;;;;69.00;54.00;;;;;10.73;42.24;101519.72;5052841;28;45705;-73
2022/03/09 01:27:31;;;;;;;;;67.50;50.75;;;;;10.68;42.29;101522.47;5031985;28;45378;-73
2022/03/09 01:29:56;;;;;;;;;70.00;53.50;;;;;10.68;41.94;101529.63;5020650;28;45252;-73
2022/03/09 01:32:22;;;;;;;;;65.00;51.75;;;;;10.60;41.92;101523.56;5030914;28;45271;-73
2022/03/09 01:34:48;;;;;;;;;70.75;56.50;;;;;10.61;42.22;101523.53;5019075;28;45800;-73
2022/03/09 01:37:13;;;;;;;;;72.00;56.75;;;;;10.57;42.26;101521.81;5019397;28;45380;-73
2022/03/09 01:39:39;;;;;;;;;71.00;53.25;;;;;10.50;41.86;101515.72;5020796;28;45221;-73
2022/03/09 01:42:04;;;;;;;;;69.00;54.00;;;;;10.50;42.42;101521.03;5047367;28;45564;-73
2022/03/09 01:44:30;;;;;;;;;67.50;53.25;;;;;10.49;42.49;101521.06;5036322;28;45466;-73
2022/03/09 01:46:55;;;;;;;;;63.00;49.75;;;;;10.54;42.51;101514.75;5033503;28;45401;-73
2022/03/09 01:49:22;;;;;;;;;72.00;52.50;;;;;10.54;42.77;101519.19;5019553;28;45296;-73
2022/03/09 01:51:48;;;;;;;;;67.00;50.25;;;;;10.52;42.59;101519.25;5032403;28;45319;-73
2022/03/09 01:54:15;;;;;;;;;68.75;53.25;;;;;10.50;42.33;101505.03;5036959;28;45339;-73
2022/03/09 01:56:41;;;;;;;;;69.75;54.75;;;;;10.50;42.08;101512.16;5019640;28;45956;-73
2022/03/09 01:59:09;;;;;;;;;65.75;52.00;;;;;10.47;42.72;101499.75;5019575;28;46328;-73
2022/03/09 02:01:35;;;;;;;;;67.00;52.25;;;;;10.50;42.91;101518.38;5032883;28;45450;-73
2022/03/09 02:04:02;;;;;;;;;63.00;50.75;;;;;10.46;42.85;101514.03;5019188;28;45327;-72
2022/03/09 02:06:28;;;;;;;;;65.00;52.00;;;;;10.46;42.59;101502.47;5018967;28;45274;-72
2022/03/09 02:11:38;;;;;;;;;65.50;51.75;;;;;10.45;43.02;101504.25;5019181;28;45266;-73
2022/03/09 02:14:04;;;;;;;;;69.75;54.00;;;;;10.50;42.79;101507.69;5018822;28;45355;-73
2022/03/09 02:16:30;;;;;;;;;67.00;51.00;;;;;10.48;43.06;101509.53;5018890;28;45773;-73
2022/03/09 02:18:55;;;;;;;;;65.00;53.00;;;;;10.48;43.29;101508.66;5019248;28;45371;-73
2022/03/09 02:21:26;;;;;;;;;62.50;51.75;;;;;10.43;43.03;101500.72;5038397;28;45635;-73
2022/03/09 02:23:53;;;;;;;;;67.25;52.00;;;;;10.44;42.98;101502.50;5035334;28;45351;-73
2022/03/09 02:26:19;;;;;;;;;60.00;49.50;;;;;10.41;43.17;101504.31;5025164;28;45446;-73
2022/03/09 02:28:47;;;;;;;;;59.50;48.50;;;;;10.36;43.17;101499.97;5032320;28;45173;-73
2022/03/09 02:31:12;;;;;;;;;68.25;52.75;;;;;10.34;43.45;101501.81;5039559;28;45456;-73
2022/03/09 02:33:38;;;;;;;;;68.00;54.00;;;;;10.36;43.50;101515.13;5022684;28;46918;-73
2022/03/09 02:36:04;;;;;;;;;65.00;51.75;;;;;10.32;43.57;101514.31;5022723;28;45416;-72
2022/03/09 02:38:29;;;;;;;;;65.25;52.50;;;;;10.32;43.79;101524.97;5028682;28;45287;-73
2022/03/09 02:40:54;;;;;;;;;64.75;51.75;;;;;10.29;43.41;101519.66;5030774;28;45408;-73
2022/03/09 02:43:20;;;;;;;;;72.25;55.00;;;;;10.27;43.81;101513.44;5034868;28;47072;-73
2022/03/09 02:45:45;;;;;;;;;69.00;54.50;;;;;10.29;43.55;101503.66;5040904;28;45489;-73
2022/03/09 02:48:11;;;;;;;;;62.25;50.75;;;;;10.22;44.08;101498.44;5021329;28;45557;-73
2022/03/09 02:50:36;;;;;;;;;65.25;51.75;;;;;10.23;43.74;101511.75;5021816;28;45292;-73
2022/03/09 02:53:02;;;;;;;;;71.75;57.00;;;;;10.22;43.76;101515.31;5045512;28;45387;-73
2022/03/09 02:55:27;;;;;;;;;63.50;49.50;;;;;10.20;43.96;101511.81;5032801;28;45332;-73
2022/03/09 02:57:52;;;;;;;;;64.75;53.50;;;;;10.17;43.95;101510.09;5035259;28;45379;-73
2022/03/09 03:00:18;;;;;;;;;63.50;52.00;;;;;10.19;43.96;101526.94;5022056;28;45312;-73
2022/03/09 03:02:43;;;;;;;;;71.00;55.50;;;;;10.11;44.28;101515.53;5021466;28;45369;-73
2022/03/09 03:05:09;;;;;;;;;62.75;50.50;;;;;10.16;44.17;101537.66;5026220;28;45428;-73
2022/03/09 03:07:35;;;;;;;;;66.00;49.75;;;;;10.15;44.55;101532.34;5030971;28;45371;-73
2022/03/09 03:10:00;;;;;;;;;64.00;51.75;;;;;10.11;44.15;101528.88;5030985;28;45204;-73
2022/03/09 03:12:26;;;;;;;;;61.00;48.00;;;;;10.12;44.77;101535.06;5041433;28;46440;-73
2022/03/09 03:14:51;;;;;;;;;63.75;50.25;;;;;10.08;44.32;101534.25;5041499;28;45434;-73
2022/03/09 03:17:16;;;;;;;;;63.75;49.25;;;;;10.11;44.86;101538.66;5040468;28;45300;-73
2022/03/09 03:19:42;;;;;;;;;62.00;48.25;;;;;10.04;45.08;101529.91;5050889;28;45597;-73
2022/03/09 03:22:07;;;;;;;;;69.50;51.50;;;;;10.02;45.00;101527.25;5040940;28;46198;-73
2022/03/09 03:24:33;;;;;;;;;67.25;52.00;;;;;10.03;44.89;101525.47;5021532;28;45423;-73
2022/03/09 03:26:58;;;;;;;;;68.50;52.75;;;;;10.02;44.91;101521.91;5024052;28;45283;-73
2022/03/09 03:29:23;;;;;;;;;64.50;49.75;;;;;9.98;45.15;101522.00;5041376;28;45412;-73
2022/03/09 03:31:49;;;;;;;;;64.50;52.00;;;;;9.98;44.94;101530.88;5024654;28;45429;-73
2022/03/09 03:34:14;;;;;;;;;57.00;47.25;;;;;9.94;44.90;101509.59;5021142;28;45213;-73
2022/03/09 03:36:40;;;;;;;;;66.50;52.50;;;;;9.93;45.38;101514.06;5022296;28;45569;-73
2022/03/09 03:39:05;;;;;;;;;66.50;51.50;;;;;9.94;44.90;101523.84;5021309;28;45525;-73
2022/03/09 03:41:31;;;;;;;;;67.25;52.00;;;;;9.89;45.58;101515.03;5031668;28;45961;-73
2022/03/09 03:43:56;;;;;;;;;67.50;53.00;;;;;9.88;45.10;101520.41;5027124;28;45414;-73
2022/03/09 03:46:21;;;;;;;;;66.25;52.75;;;;;9.90;45.13;101524.78;5040152;28;45221;-73
2022/03/09 03:48:47;;;;;;;;;63.75;48.50;;;;;9.89;45.20;101524.81;5021189;28;45154;-73
2022/03/09 03:51:12;;;;;;;;;67.00;52.75;;;;;9.85;45.57;101515.97;5021339;28;45525;-73
2022/03/09 03:53:37;;;;;;;;;65.25;50.00;;;;;9.89;45.47;101522.13;5021021;28;45359;-73
2022/03/09 03:56:03;;;;;;;;;63.50;49.25;;;;;9.88;45.40;101525.72;5021080;28;45357;-73
2022/03/09 03:58:28;;;;;;;;;64.25;50.75;;;;;9.78;45.63;101520.53;5020958;28;45520;-73
2022/03/09 04:00:53;;;;;;;;;70.00;55.25;;;;;9.82;45.46;101524.03;5021617;28;45542;-73
2022/03/09 04:03:19;;;;;;;;;62.25;51.75;;;;;9.78;46.07;101527.66;5033418;28;45213;-73
2022/03/09 04:05:44;;;;;;;;;62.00;49.50;;;;;9.79;45.79;101532.97;5021571;28;45433;-73
2022/03/09 04:08:09;;;;;;;;;65.50;52.50;;;;;9.78;45.76;101533.00;5033118;28;45256;-73
2022/03/09 04:10:35;;;;;;;;;62.75;51.00;;;;;9.76;46.18;101537.47;5033048;28;45390;-73
2022/03/09 04:13:03;;;;;;;;;69.00;54.25;;;;;9.73;45.96;101534.84;5020927;28;45303;-73
2022/03/09 04:15:32;;;;;;;;;66.00;51.75;;;;;9.72;46.07;101531.31;5031639;28;45309;-73
2022/03/09 04:17:57;;;;;;;;;59.75;49.75;;;;;9.69;46.49;101528.69;5047018;28;45468;-73
2022/03/09 04:20:23;;;;;;;;;61.00;50.25;;;;;9.70;46.23;101543.78;5025149;28;46150;-73
2022/03/09 04:22:48;;;;;;;;;65.00;51.25;;;;;9.71;46.59;101534.00;5039733;28;45290;-73
2022/03/09 04:25:14;;;;;;;;;60.00;48.50;;;;;9.73;46.60;101546.41;5025546;28;45320;-73
2022/03/09 04:27:39;;;;;;;;;1.00;0.00;;;;;9.72;46.43;101541.09;5020371;28;45221;-73
2022/03/09 04:30:05;;;;;;;;;63.75;51.50;;;;;9.71;46.26;101536.69;5033469;28;45419;-73
2022/03/09 04:32:32;;;;;;;;;65.75;52.25;;;;;9.66;46.14;101531.41;5020621;28;45282;-74
2022/03/09 04:34:57;;;;;;;;;66.75;53.50;;;;;9.68;45.83;101528.72;5023310;28;45317;-73
2022/03/09 04:37:23;;;;;;;;;67.75;53.25;;;;;9.64;46.22;101526.09;5049235;28;45406;-73
2022/03/09 04:39:48;;;;;;;;;68.25;51.50;;;;;9.67;46.54;101524.28;5024036;28;46246;-73
2022/03/09 04:42:14;;;;;;;;;67.25;52.25;;;;;9.69;46.50;101530.47;5020250;28;45413;-73
2022/03/09 04:44:39;;;;;;;;;71.75;54.00;;;;;9.68;46.02;101531.38;5030123;28;45222;-73
2022/03/09 04:47:05;;;;;;;;;70.00;53.75;;;;;9.67;46.33;101533.16;5033044;28;45379;-73
2022/03/09 04:49:30;;;;;;;;;64.00;49.75;;;;;9.67;46.38;101545.59;5022487;28;45370;-73
2022/03/09 04:51:56;;;;;;;;;62.25;49.75;;;;;9.67;46.25;101549.16;5032904;28;45319;-73
2022/03/09 04:54:21;;;;;;;;;63.75;49.50;;;;;9.67;46.52;101546.47;5019558;28;45324;-73
2022/03/09 04:56:46;;;;;;;;;64.25;52.25;;;;;9.68;46.02;101550.06;5020186;28;45324;-73
2022/03/09 04:59:13;;;;;;;;;62.00;51.75;;;;;9.63;46.43;101553.66;5020635;28;45592;-73
2022/03/09 05:01:38;;;;;;;;;65.00;52.00;;;;;9.59;46.84;101541.28;5031616;28;46084;-73
2022/03/09 05:04:04;;;;;;;;;65.25;52.00;;;;;9.70;46.70;101556.22;5019999;28;45260;-73
2022/03/09 05:06:29;;;;;;;;;67.50;53.00;;;;;9.68;46.54;101550.91;5027547;28;45480;-73
2022/03/09 05:08:54;;;;;;;;;63.00;50.50;;;;;9.70;46.57;101561.56;5030945;28;45310;-73
2022/03/09 05:11:20;;;;;;;;;65.25;53.00;;;;;9.68;46.37;101553.59;5019985;28;45319;-73
2022/03/09 05:13:45;;;;;;;;;65.50;51.50;;;;;9.71;46.53;101566.00;5019910;28;45525;-73
2022/03/09 05:16:10;;;;;;;;;57.75;48.25;;;;;9.70;46.45;101565.09;5019496;28;45332;-74
2022/03/09 05:18:40;;;;;;;;;61.25;49.25;;;;;9.70;46.99;101566.91;5020784;28;46001;-73
2022/03/09 05:21:06;;;;;;;;;59.75;48.25;;;;;9.67;47.20;101565.16;5038121;28;45906;-73
2022/03/09 05:23:31;;;;;;;;;64.00;49.25;;;;;9.63;46.90;101569.66;5037948;28;45315;-73
2022/03/09 05:25:57;;;;;;;;;58.25;46.25;;;;;9.62;46.92;101575.91;5019642;28;45217;-73
2022/03/09 05:28:22;;;;;;;;;57.25;48.25;;;;;9.57;47.02;101575.09;5032708;28;45715;-73
2022/03/09 05:30:47;;;;;;;;;59.25;48.50;;;;;9.52;46.76;101570.72;5022938;28;45360;-73
2022/03/09 05:33:13;;;;;;;;;53.25;43.75;;;;;9.58;46.81;101581.28;5019441;28;45218;-73
2022/03/09 05:35:38;;;;;;;;;58.25;45.50;;;;;9.58;46.84;101575.97;5028782;28;45340;-73
2022/03/09 05:38:04;;;;;;;;;58.75;46.75;;;;;9.54;47.13;101571.56;5037895;28;45983;-73
2022/03/09 05:40:29;;;;;;;;;58.25;43.50;;;;;9.52;47.27;101578.72;5032999;28;45430;-73
2022/03/09 05:42:55;;;;;;;;;58.25;46.50;;;;;9.55;47.03;101597.31;5023805;28;45449;-73
2022/03/09 05:45:20;;;;;;;;;52.25;43.75;;;;;9.52;47.35;101598.28;5022311;28;45308;-73
2022/03/09 05:47:46;;;;;;;;;58.25;48.00;;;;;9.49;47.27;101586.75;5028109;28;45415;-73
2022/03/09 05:50:11;;;;;;;;;57.75;48.25;;;;;9.51;47.29;101595.63;5018982;28;45356;-73
2022/03/09 05:52:36;;;;;;;;;58.50;46.25;;;;;9.52;47.53;101606.25;5019266;28;45423;-73
2022/03/09 05:55:02;;;;;;;;;59.25;48.00;;;;;9.44;47.12;101603.69;5035988;28;45453;-73
2022/03/09 05:57:28;;;;;;;;;58.75;45.50;;;;;9.45;47.01;101604.56;5032430;28;46108;-73
2022/03/09 05:59:53;;;;;;;;;64.00;50.50;;;;;9.43;47.37;101614.38;5021541;28;45389;-73
2022/03/09 06:02:19;;;;;;;;;58.00;45.25;;;;;9.39;47.48;101616.19;5022844;28;45427;-73
2022/03/09 06:04:45;;;;;;;;;60.75;50.25;;;;;9.38;47.26;101614.44;5022210;28;45697;-73
2022/03/09 06:07:11;;;;;;;;;56.25;46.50;;;;;9.39;47.16;101620.66;5041133;28;46056;-73
2022/03/09 06:09:36;;;;;;;;;59.25;48.00;;;;;9.23;47.26;101598.66;5025408;28;45461;-73
2022/03/09 06:12:02;;;;;;;;;51.75;43.25;;;;;9.34;47.21;101622.47;5022680;28;45233;-73
2022/03/09 06:14:27;;;;;;;;;58.50;46.50;;;;;9.31;47.47;101615.41;5022299;28;45273;-73
2022/03/09 06:16:53;;;;;;;;;53.50;45.25;;;;;9.33;47.61;101612.75;5027751;28;45448;-73
2022/03/09 06:19:19;;;;;;;;;55.00;46.75;;;;;9.34;47.45;101618.06;5032033;28;45433;-73
2022/03/09 06:21:44;;;;;;;;;61.50;48.25;;;;;9.33;47.82;101623.41;5025770;28;45428;-73
2022/03/09 06:24:10;;;;;;;;;59.50;43.75;;;;;9.31;47.94;101626.06;5038130;28;45240;-73
2022/03/09 06:26:36;;;;;;;;;57.25;45.25;;;;;9.32;48.10;101626.94;5030254;28;45475;-73
2022/03/09 06:29:03;;;;;;;;;51.25;43.00;;;;;9.24;48.35;101619.06;5032197;28;45346;-73
2022/03/09 06:31:28;;;;;;;;;52.75;38.50;;;;;9.24;48.02;101622.63;5029741;28;45516;-73
2022/03/09 06:33:54;;;;;;;;;58.25;47.00;;;;;9.24;48.27;101625.28;5036077;28;45594;-73
2022/03/09 06:36:19;;;;;;;;;47.75;38.00;;;;;9.22;48.35;101631.50;5021798;28;46176;-73
2022/03/09 06:38:44;;;;;;;;;56.50;45.00;;;;;9.25;48.62;101635.03;5034725;28;45322;-72
2022/03/09 06:41:10;;;;;;;;;53.75;42.25;;;;;9.22;49.19;101629.75;5029214;28;45314;-73
2022/03/09 06:43:35;;;;;;;;;57.00;45.75;;;;;9.17;48.80;101628.03;5026619;28;45340;-73
2022/03/09 06:46:00;;;;;;;;;60.75;46.50;;;;;9.19;48.89;101637.78;5037982;28;46088;-73
2022/03/09 06:48:26;;;;;;;;;50.00;40.00;;;;;9.16;49.10;101634.28;5038488;28;45288;-74
2022/03/09 06:50:51;;;;;;;;;52.00;43.50;;;;;9.13;49.17;101637.84;5030986;28;45557;-73
2022/03/09 06:53:17;;;;;;;;;54.50;44.50;;;;;9.10;49.42;101632.53;5029080;28;45442;-72
2022/03/09 06:55:42;;;;;;;;;54.00;42.00;;;;;9.08;49.31;101629.91;5035121;28;45333;-72
2022/03/09 06:58:07;;;;;;;;;52.50;41.00;;;;;9.10;49.83;101635.22;5029768;28;45379;-72
2022/03/09 07:00:33;;;;;;;;;48.00;39.25;;;;;9.11;49.58;101647.63;5031230;28;45311;-72
2022/03/09 07:02:59;;;;;;;;;52.75;41.75;;;;;9.13;49.69;101650.28;5034520;28;45141;-72
2022/03/09 07:05:25;;;;;;;;;53.75;42.25;;;;;9.13;49.80;101636.97;5021510;28;45969;-72
2022/03/09 07:07:51;;;;;;;;;48.25;41.50;;;;;9.10;49.98;101637.88;5023426;28;45333;-72
2022/03/09 07:10:16;;;;;;;;;55.25;41.75;;;;;9.14;50.25;101652.03;5035126;28;45473;-72
2022/03/09 07:12:44;;;;;;;;;51.50;42.50;;;;;9.15;50.17;101649.34;5030083;28;45366;-72
2022/03/09 07:15:10;;;;;;;;;50.00;42.25;;;;;9.15;50.32;101651.16;5024777;28;48282;-72
2022/03/09 07:17:36;;;;;;;;;51.75;42.50;;;;;9.15;50.96;101659.13;5022893;28;45414;-72
2022/03/09 07:20:02;;;;;;;;;47.25;39.00;;;;;9.19;50.53;101663.53;5046782;28;45401;-72
2022/03/09 07:22:27;;;;;;;;;56.00;42.25;;;;;9.21;50.96;101669.72;5055471;28;45430;-71
2022/03/09 07:24:53;;;;;;;;;56.25;46.25;;;;;9.21;50.60;101673.25;5020466;28;47041;-70
2022/03/09 07:27:18;;;;;;;;;52.75;44.00;;;;;9.25;50.65;101671.44;5034643;28;45295;-70
2022/03/09 07:29:44;;;;;;;;;56.25;44.25;;;;;9.27;50.62;101677.63;5021424;28;45557;-70
2022/03/09 07:32:11;;;;;;;;;56.00;44.00;;;;;9.27;50.99;101678.53;5021964;28;45673;-71
2022/03/09 07:34:36;;;;;;;;;52.50;44.00;;;;;9.28;51.00;101680.28;5031939;28;46040;-70
2022/03/09 07:37:02;;;;;;;;;47.75;37.75;;;;;9.22;50.65;101682.13;5030143;28;45773;-71
2022/03/09 07:39:29;;;;;;;;;57.00;45.50;;;;;9.23;50.98;101675.91;5036570;28;45473;-71
2022/03/09 07:41:55;;;;;;;;;58.75;45.25;;;;;9.24;50.87;101691.88;5030025;28;45533;-72
2022/03/09 07:44:21;;;;;;;;;54.25;43.00;;;;;9.23;51.04;101686.56;5028104;28;45602;-72
2022/03/09 07:46:47;;;;;;;;;49.00;41.50;;;;;9.26;51.35;101687.41;5028930;28;45387;-71
2022/03/09 07:49:13;;;;;;;;;60.50;45.75;;;;;9.28;51.26;101688.25;5021187;28;45162;-71
2022/03/09 07:51:38;;;;;;;;;55.25;43.00;;;;;9.31;51.26;101690.03;5028349;28;45549;-71
2022/03/09 07:54:04;;;;;;;;;56.25;45.25;;;;;9.34;51.49;101695.31;5035733;28;47206;-71
2022/03/09 07:56:29;;;;;;;;;59.50;48.00;;;;;9.37;51.54;101695.28;5040205;28;45268;-71
2022/03/09 07:58:55;;;;;;;;;52.75;43.00;;;;;9.37;51.35;101700.63;5029697;28;45389;-71
2022/03/09 08:01:20;;;;;;;;;52.25;44.00;;;;;9.37;51.80;101697.06;5029843;28;45215;-71
2022/03/09 08:03:46;;;;;;;;;46.50;40.00;;;;;9.42;51.80;101703.22;5050272;28;45295;-71
2022/03/09 08:06:12;;;;;;;;;47.75;40.50;;;;;9.40;51.72;101703.22;5030817;28;45504;-68
2022/03/09 08:08:37;;;;;;;;;48.75;41.00;;;;;9.46;51.96;101688.97;5032018;28;45510;-68
2022/03/09 08:11:03;;;;;;;;;46.25;39.75;;;;;9.53;52.37;101706.63;5030899;28;45568;-68
2022/03/09 08:13:28;;;;;;;;;50.50;41.00;;;;;9.58;52.13;101719.91;5033340;28;45397;-68
2022/03/09 08:15:53;;;;;;;;;52.75;42.00;;;;;9.60;52.34;101716.31;5020319;28;45513;-68
2022/03/09 08:18:19;;;;;;;;;55.25;43.75;;;;;9.56;52.30;101703.94;5034320;28;45765;-68
2022/03/09 08:20:44;;;;;;;;;57.75;45.50;;;;;9.63;52.81;101704.72;5038984;28;45312;-68
2022/03/09 08:23:10;;;;;;;;;48.25;39.50;;;;;9.61;52.43;101707.41;5032405;28;45530;-68
2022/03/09 08:25:35;;;;;;;;;45.75;38.50;;;;;9.64;52.96;101709.16;5031285;28;45462;-68
2022/03/09 08:28:01;;;;;;;;;45.25;38.00;;;;;9.69;53.24;101710.00;5025358;28;45409;-69
2022/03/09 08:30:27;;;;;;;;;35.75;35.00;;;;;9.66;53.27;101706.50;5027032;28;45359;-68
2022/03/09 08:32:52;;;;;;;;;39.25;35.25;;;;;9.71;52.85;101715.31;5025177;28;46220;-68
2022/03/09 08:35:18;;;;;;;;;43.00;37.75;;;;;9.74;53.33;101717.91;5019678;28;45399;-68
2022/03/09 08:37:43;;;;;;;;;42.75;37.00;;;;;9.79;53.37;101718.75;5025996;28;45858;-68
2022/03/09 08:40:09;;;;;;;;;40.25;36.00;;;;;9.83;53.34;101710.66;5019357;28;45477;-67
2022/03/09 08:42:35;;;;;;;;;38.00;34.00;;;;;9.83;52.96;101710.66;5018738;28;46303;-67
2022/03/09 08:45:00;;;;;;;;;34.00;32.25;;;;;9.95;53.22;101722.94;5024405;28;45653;-74
2022/03/09 08:47:26;;;;;;;;;32.25;30.25;;;;;9.98;53.67;101717.56;5028258;28;45489;-74
2022/03/09 08:49:52;;;;;;;;;36.00;34.00;;;;;10.02;53.77;101719.31;5028296;28;45427;-77
2022/03/09 08:52:17;;;;;;;;;32.75;29.75;;;;;10.10;53.39;101718.31;5018880;28;45365;-76
2022/03/09 08:54:42;;;;;;;;;31.50;31.00;;;;;10.13;53.61;101718.25;5027228;28;45730;-75
2022/03/09 08:57:08;;;;;;;;;36.00;32.00;;;;;10.14;53.89;101717.34;5033409;28;45403;-75
2022/03/09 08:59:34;;;;;;;;;36.25;33.25;;;;;10.17;54.22;101715.53;5019273;28;45437;-76
2022/03/09 09:01:59;;;;;;;;;33.00;31.25;;;;;10.20;54.11;101714.59;5018820;28;45486;-74
2022/03/09 09:04:25;;;;;;;;;34.00;32.75;;;;;10.24;54.24;101708.31;5037691;28;45473;-74
2022/03/09 09:06:50;;;;;;;;;33.75;33.75;;;;;10.27;54.31;101716.25;5032388;28;45481;-74
2022/03/09 09:09:17;;;;;;;;;44.25;35.75;;;;;10.29;54.43;101714.47;5029816;28;45365;-74
2022/03/09 09:11:46;;;;;;;;;39.25;35.50;;;;;10.30;54.71;101710.88;5034772;28;45437;-74
2022/03/09 09:14:13;;;;;;;;;32.50;29.75;;;;;10.37;54.09;101717.94;5026665;28;45404;-74
2022/03/09 09:16:41;;;;;;;;;30.75;28.50;;;;;10.32;54.33;101703.78;5019004;28;45497;-74
2022/03/09 09:19:07;;;;;;;;;34.50;31.50;;;;;10.42;54.91;101720.50;5029846;28;45390;-74
2022/03/09 09:21:32;;;;;;;;;32.25;27.75;;;;;10.47;54.70;101726.63;5040694;28;46241;-74
2022/03/09 09:23:57;;;;;;;;;29.00;28.25;;;;;10.51;54.76;101720.38;5030041;28;45232;-74
2022/03/09 09:26:23;;;;;;;;;32.75;31.25;;;;;10.54;55.16;101722.09;5020577;28;45450;-74
2022/03/09 09:28:48;;;;;;;;;34.50;29.75;;;;;10.57;55.13;101714.03;5036294;28;45621;-74
2022/03/09 09:31:13;;;;;;;;;29.75;28.00;;;;;10.54;54.75;101703.41;5021363;28;45391;-74
2022/03/09 09:33:39;;;;;;;;;30.75;29.00;;;;;10.64;54.88;101712.13;5018300;28;45626;-71
2022/03/09 09:36:05;;;;;;;;;33.00;28.75;;;;;10.63;54.82;101697.91;5031480;28;45813;-74
2022/03/09 09:38:30;;;;;;;;;31.25;27.75;;;;;10.67;55.61;101704.94;5025796;28;45450;-77
2022/03/09 09:40:56;;;;;;;;;33.50;28.25;;;;;10.71;55.33;101703.13;5033739;28;45406;-75
2022/03/09 09:43:24;;;;;;;;;9.00;4.75;;;;;10.77;55.06;101699.47;5029165;28;45524;-76
2022/03/09 09:45:50;;;;;;;;;25.75;22.50;;;;;10.77;56.29;101692.31;5041870;28;45334;-74
2022/03/09 09:48:17;;;;;;;;;26.25;23.50;;;;;10.78;56.23;101693.22;5038007;28;45313;-76
2022/03/09 09:50:43;;;;;;;;;20.75;20.75;;;;;10.80;56.70;101688.72;5026647;28;47133;-76
2022/03/09 09:53:11;;;;;;;;;22.50;20.00;;;;;10.83;56.29;101689.53;5028794;28;45334;-76
2022/03/09 09:55:37;;;;;;;;;19.75;18.25;;;;;10.91;56.65;101684.06;5030942;28;45398;-76
2022/03/09 09:58:04;;;;;;;;;20.00;18.75;;;;;10.97;56.56;101686.59;5021424;28;45530;-76
2022/03/09 10:00:30;;;;;;;;;21.50;19.75;;;;;11.00;56.38;101678.53;5031340;28;45399;-77
2022/03/09 10:02:56;;;;;;;;;18.00;15.00;;;;;11.02;56.60;101681.19;5038280;28;45422;-76
2022/03/09 10:05:21;;;;;;;;;14.75;14.00;;;;;11.10;56.54;101689.94;5045365;28;45630;-76
2022/03/09 10:08:08;;;;;;;;;16.25;15.75;;;;;11.16;57.21;101687.16;5029693;28;45306;-76
2022/03/09 10:10:35;;;;;;;;;23.25;19.50;;;;;11.21;56.60;101679.03;5021460;28;45527;-76
2022/03/09 10:13:16;;;;;;;;;17.00;16.75;;;;;11.28;57.10;101680.69;5027180;28;45760;-76
2022/03/09 10:15:44;;;;;;;;;21.75;20.50;;;;;11.32;56.61;101685.91;5021324;28;45356;-76
2022/03/09 10:18:17;;;;;;;;;19.00;17.75;;;;;11.39;56.60;101677.78;5021886;28;45698;-77
2022/03/09 10:20:45;;;;;;;;;19.00;16.50;;;;;11.41;56.41;101671.50;5033296;28;47987;-77
2022/03/09 10:23:10;;;;;;;;;20.50;19.75;;;;;11.43;56.48;101660.78;5021203;28;45893;-76
2022/03/09 10:25:38;;;;;;;;;18.00;16.50;;;;;11.55;56.19;101676.53;5021351;28;45332;-76
2022/03/09 10:28:08;;;;;;;;;18.75;17.25;;;;;11.58;56.90;101665.78;5021457;28;45749;-76
2022/03/09 10:30:35;;;;;;;;;13.50;13.50;;;;;11.66;56.71;101662.91;5021331;28;46994;-77
2022/03/09 10:33:03;;;;;;;;;15.25;13.25;;;;;11.63;56.82;101655.88;5032928;28;45459;-76
2022/03/09 10:35:31;;;;;;;;;13.00;12.50;;;;;11.79;56.63;101668.88;5027593;28;45428;-73
2022/03/09 10:37:58;;;;;;;;;13.00;12.00;;;;;11.84;56.52;101664.31;5028443;28;45446;-77
2022/03/09 10:40:24;;;;;;;;;13.50;13.25;;;;;11.90;56.40;101656.16;5025239;28;45322;-78
2022/03/09 10:42:51;;;;;;;;;15.00;13.25;;;;;11.88;56.48;101649.97;5029560;28;45908;-74
2022/03/09 10:45:18;;;;;;;;;10.00;9.00;;;;;12.00;56.41;101656.84;5037864;28;45443;-75
2022/03/09 10:47:45;;;;;;;;;14.25;12.00;;;;;12.04;56.38;101654.06;5029378;28;45398;-75
2022/03/09 10:50:25;;;;;;;;;8.00;6.75;;;;;12.06;56.13;101648.66;5020919;28;45491;-77
2022/03/09 10:52:56;;;;;;;;;13.75;12.00;;;;;12.14;55.66;101652.03;5026607;28;45589;-86
2022/03/09 10:55:33;;;;;;;;;8.50;8.50;;;;;12.20;55.99;101649.22;5040873;28;45379;-80
2022/03/09 10:58:17;;;;;;;;;15.00;12.00;;;;;12.27;56.17;101663.31;5024199;28;45550;-81
2022/03/09 11:00:43;;;;;;;;;17.00;15.25;;;;;12.31;56.09;101657.00;5024505;28;46015;-82
2022/03/09 11:03:13;;;;;;;;;18.50;17.75;;;;;12.35;56.02;101657.78;5020152;28;45304;-80
2022/03/09 11:05:51;;;;;;;;;18.75;18.75;;;;;12.43;56.27;101663.84;5023267;28;45443;-83
2022/03/09 11:08:18;;;;;;;;;15.75;15.75;;;;;12.47;56.03;101649.44;5022859;28;45800;-85
2022/03/09 11:10:45;;;;;;;;;9.75;8.00;;;;;12.56;56.05;101656.34;5021664;28;46347;-82